createdAt,value
2019-01-04T00:01:43.717Z,1.80
2019-01-04T00:04:49.342Z,1.80
2019-01-04T00:07:54.424Z,1.70
2019-01-04T00:10:59.395Z,1.70
2019-01-04T00:14:04.540Z,1.70
2019-01-04T00:17:09.567Z,1.60
2019-01-04T00:20:14.975Z,1.50
2019-01-04T00:23:20.092Z,1.50
2019-01-04T00:26:25.194Z,1.50
2019-01-04T00:29:30.380Z,1.50
2019-01-04T00:32:35.517Z,1.40
2019-01-04T00:35:40.619Z,1.40
2019-01-04T00:38:45.767Z,1.40
2019-01-04T00:41:50.882Z,1.30
2019-01-04T00:44:56.013Z,1.30
2019-01-04T00:48:01.118Z,1.20
2019-01-04T00:51:06.268Z,1.20
2019-01-04T00:54:11.390Z,1.10
2019-01-04T00:58:03.370Z,1.10
2019-01-04T01:01:31.408Z,1.10
2019-01-04T01:05:32.562Z,1.00
2019-01-04T01:09:31.212Z,1.00
2019-01-04T01:13:11.755Z,0.90
2019-01-04T01:17:09.520Z,0.90
2019-01-04T01:20:48.236Z,0.90
2019-01-04T01:24:14.284Z,0.90
2019-01-04T01:28:08.266Z,0.90
2019-01-04T01:31:50.056Z,0.80
2019-01-04T01:35:27.135Z,0.80
2019-01-04T01:39:15.179Z,0.70
2019-01-04T01:42:57.079Z,0.70
2019-01-04T01:46:25.550Z,0.70
2019-01-04T01:50:14.587Z,0.60
2019-01-04T01:53:19.490Z,0.70
2019-01-04T01:56:24.608Z,0.70
2019-01-04T01:59:29.723Z,0.80
2019-01-04T02:02:34.768Z,0.90
2019-01-04T02:05:39.750Z,0.90
2019-01-04T02:08:44.802Z,1.00
2019-01-04T02:11:49.848Z,1.00
2019-01-04T02:14:54.821Z,1.10
2019-01-04T02:17:59.879Z,1.20
2019-01-04T02:21:04.984Z,1.20
2019-01-04T02:24:10.124Z,1.20
2019-01-04T02:27:15.159Z,1.20
2019-01-04T02:30:20.705Z,1.20
2019-01-04T02:33:25.764Z,1.10
2019-01-04T02:36:31.038Z,1.10
2019-01-04T02:39:36.023Z,1.10
2019-01-04T02:42:41.061Z,1.10
2019-01-04T02:45:46.040Z,1.10
2019-01-04T02:48:51.102Z,1.20
2019-01-04T02:51:56.056Z,1.30
2019-01-04T02:55:01.121Z,1.40
2019-01-04T02:58:06.134Z,1.40
2019-01-04T03:01:11.253Z,1.50
2019-01-04T03:04:16.215Z,1.50
2019-01-04T03:07:21.312Z,1.60
2019-01-04T03:10:26.283Z,1.70
2019-01-04T03:13:32.602Z,1.70
2019-01-04T03:16:37.654Z,1.80
2019-01-04T03:19:42.706Z,1.90
2019-01-04T03:22:47.807Z,1.90
2019-01-04T03:25:52.868Z,1.90
2019-01-04T03:28:57.929Z,1.90
2019-01-04T03:32:02.978Z,1.90
2019-01-04T03:35:08.116Z,1.80
2019-01-04T03:38:13.144Z,1.80
2019-01-04T03:41:18.191Z,1.80
2019-01-04T03:44:23.246Z,1.80
2019-01-04T03:47:28.347Z,1.70
2019-01-04T03:50:33.455Z,1.80
2019-01-04T03:53:38.507Z,1.80
2019-01-04T03:56:43.548Z,1.80
2019-01-04T03:59:48.523Z,1.80
2019-01-04T04:02:53.627Z,1.80
2019-01-04T04:05:58.678Z,1.80
2019-01-04T04:09:05.209Z,1.80
2019-01-04T04:12:10.236Z,1.90
2019-01-04T04:15:15.290Z,1.90
2019-01-04T04:18:20.316Z,1.90
2019-01-04T04:21:25.284Z,1.90
2019-01-04T04:24:30.323Z,1.90
2019-01-04T04:27:35.464Z,1.90
2019-01-04T04:30:40.581Z,1.90
2019-01-04T04:33:45.644Z,2.00
2019-01-04T04:36:50.683Z,2.00
2019-01-04T04:39:55.678Z,2.00
2019-01-04T04:43:00.717Z,2.00
2019-01-04T04:46:05.776Z,2.00
2019-01-04T04:49:10.961Z,2.00
2019-01-04T04:52:15.936Z,2.00
2019-01-04T04:55:20.986Z,1.90
2019-01-04T04:58:25.962Z,1.90
2019-01-04T05:01:31.018Z,1.90
2019-01-04T05:04:36.118Z,1.90
2019-01-04T05:07:42.798Z,1.80
2019-01-04T05:10:47.915Z,1.90
2019-01-04T05:13:52.955Z,1.90
2019-01-04T05:16:57.925Z,1.90
2019-01-04T05:20:03.054Z,2.00
2019-01-04T05:23:08.074Z,2.00
2019-01-04T05:26:13.395Z,2.00
2019-01-04T05:29:18.610Z,2.10
2019-01-04T05:32:24.120Z,2.10
2019-01-04T05:35:29.415Z,2.10
2019-01-04T05:38:34.753Z,2.00
2019-01-04T05:41:39.863Z,2.00
2019-01-04T05:44:44.958Z,2.00
2019-01-04T05:47:49.972Z,2.00
2019-01-04T05:50:55.086Z,1.90
2019-01-04T05:54:00.044Z,1.90
2019-01-04T05:57:05.101Z,1.90
2019-01-04T06:00:10.608Z,1.80
2019-01-04T06:03:15.654Z,1.80
2019-01-04T06:06:20.637Z,1.70
2019-01-04T06:09:25.584Z,1.60
2019-01-04T06:12:30.635Z,1.60
2019-01-04T06:15:35.740Z,1.60
2019-01-04T06:18:40.864Z,1.60
2019-01-04T06:21:45.868Z,1.60
2019-01-04T06:24:50.830Z,1.60
2019-01-04T06:27:55.791Z,1.60
2019-01-04T06:31:00.767Z,1.60
2019-01-04T06:34:05.731Z,1.60
2019-01-04T06:37:10.700Z,1.60
2019-01-04T06:40:15.813Z,1.70
2019-01-04T06:43:20.856Z,1.70
2019-01-04T06:46:25.839Z,1.70
2019-01-04T06:49:30.786Z,1.70
2019-01-04T06:52:36.138Z,1.80
2019-01-04T06:55:48.299Z,1.80
2019-01-04T06:58:53.381Z,1.80
2019-01-04T07:01:59.887Z,1.80
2019-01-04T07:05:05.027Z,1.90
2019-01-04T07:08:10.079Z,1.80
2019-01-04T07:11:15.131Z,1.80
2019-01-04T07:14:21.214Z,1.80
2019-01-04T07:17:26.221Z,1.90
2019-01-04T07:20:31.311Z,1.90
2019-01-04T07:23:36.337Z,1.90
2019-01-04T07:26:41.298Z,1.90
2019-01-04T07:29:46.399Z,1.90
2019-01-04T07:32:51.352Z,2.00
2019-01-04T07:35:56.416Z,2.00
2019-01-04T07:39:01.475Z,2.00
2019-01-04T07:42:06.590Z,2.00
2019-01-04T07:45:11.931Z,1.90
2019-01-04T07:48:16.910Z,1.90
2019-01-04T07:51:21.962Z,1.90
2019-01-04T07:54:27.126Z,1.90
2019-01-04T07:57:32.163Z,1.90
2019-01-04T08:00:37.331Z,1.90
2019-01-04T08:03:42.379Z,2.00
2019-01-04T08:06:47.484Z,2.00
2019-01-04T08:09:52.454Z,2.00
2019-01-04T08:12:57.500Z,2.10
2019-01-04T08:16:02.456Z,2.20
2019-01-04T08:19:07.579Z,2.30
2019-01-04T08:22:12.526Z,2.30
2019-01-04T08:25:17.511Z,2.40
2019-01-04T08:28:22.475Z,2.40
2019-01-04T08:31:27.523Z,2.50
2019-01-04T08:34:32.507Z,2.40
2019-01-04T08:37:37.491Z,2.50
2019-01-04T08:40:42.451Z,2.40
2019-01-04T08:43:47.483Z,2.50
2019-01-04T08:46:52.477Z,2.40
2019-01-04T08:49:57.448Z,2.40
2019-01-04T08:53:02.407Z,2.40
2019-01-04T08:56:07.458Z,2.30
2019-01-04T08:59:12.504Z,2.30
2019-01-04T09:02:17.531Z,2.30
2019-01-04T09:05:22.588Z,2.30
2019-01-04T09:08:27.561Z,2.40
2019-01-04T09:11:32.599Z,2.40
2019-01-04T09:14:37.574Z,2.40
2019-01-04T09:17:42.552Z,2.50
2019-01-04T09:20:47.606Z,2.60
2019-01-04T09:23:52.654Z,2.60
2019-01-04T09:26:57.773Z,2.70
2019-01-04T09:30:02.911Z,2.70
2019-01-04T09:33:07.876Z,2.80
2019-01-04T09:36:12.852Z,2.80
2019-01-04T09:39:17.826Z,2.80
2019-01-04T09:42:23.516Z,2.90
2019-01-04T09:45:28.631Z,2.90
2019-01-04T09:48:33.672Z,3.00
2019-01-04T09:51:38.694Z,3.00
2019-01-04T09:54:43.701Z,3.00
2019-01-04T09:57:48.744Z,3.00
2019-01-04T10:00:53.847Z,3.00
2019-01-04T10:03:58.867Z,3.10
2019-01-04T10:07:03.987Z,3.10
2019-01-04T10:10:11.060Z,3.20
2019-01-04T10:13:16.118Z,3.20
2019-01-04T10:16:21.158Z,3.20
2019-01-04T10:19:26.214Z,3.20
2019-01-04T10:22:31.172Z,3.20
2019-01-04T10:25:36.217Z,3.20
2019-01-04T10:28:41.259Z,3.20
2019-01-04T10:31:46.379Z,3.20
2019-01-04T10:34:51.422Z,3.20
2019-01-04T10:37:56.432Z,3.20
2019-01-04T10:41:01.489Z,3.30
2019-01-04T10:44:06.530Z,3.40
2019-01-04T10:47:12.662Z,3.50
2019-01-04T10:50:17.766Z,3.50
2019-01-04T10:53:22.818Z,3.50
2019-01-04T10:56:27.929Z,3.50
2019-01-04T10:59:32.975Z,3.50
2019-01-04T11:02:38.010Z,3.50
2019-01-04T11:05:43.127Z,3.60
2019-01-04T11:08:48.247Z,3.60
2019-01-04T11:11:53.263Z,3.60
2019-01-04T11:14:58.246Z,3.70
2019-01-04T11:18:03.441Z,3.70
2019-01-04T11:21:10.472Z,3.80
2019-01-04T11:24:43.782Z,3.80
2019-01-04T11:28:09.843Z,3.80
2019-01-04T11:31:24.926Z,3.70
2019-01-04T11:35:03.728Z,3.70
2019-01-04T11:38:35.119Z,3.60
2019-01-04T11:42:27.272Z,3.60
2019-01-04T11:45:48.310Z,3.50
2019-01-04T11:49:05.980Z,3.40
2019-01-04T11:52:41.824Z,3.40
2019-01-04T11:55:46.868Z,3.40
2019-01-04T11:58:51.887Z,3.40
2019-01-04T12:01:57.002Z,3.40
2019-01-04T12:05:02.696Z,3.40
2019-01-04T12:08:07.752Z,3.40
2019-01-04T12:11:12.715Z,3.40
2019-01-04T12:14:17.691Z,3.30
2019-01-04T12:17:22.742Z,3.40
2019-01-04T12:20:27.923Z,3.40
2019-01-04T12:23:32.972Z,3.40
2019-01-04T12:26:38.042Z,3.50
2019-01-04T12:29:42.997Z,3.50
2019-01-04T12:32:47.964Z,3.40
2019-01-04T12:35:52.996Z,3.40
2019-01-04T12:38:58.043Z,3.40
2019-01-04T12:42:03.080Z,3.40
2019-01-04T12:45:08.571Z,3.40
2019-01-04T12:48:13.551Z,3.30
2019-01-04T12:51:18.587Z,3.30
2019-01-04T12:54:25.019Z,3.30
2019-01-04T12:57:30.083Z,3.30
2019-01-04T13:00:35.217Z,3.20
2019-01-04T13:03:40.341Z,3.30
2019-01-04T13:06:45.450Z,3.20
2019-01-04T13:09:50.641Z,3.20
2019-01-04T13:12:55.760Z,3.20
2019-01-04T13:16:00.832Z,3.30
2019-01-04T13:19:05.955Z,3.30
2019-01-04T13:22:11.082Z,3.30
2019-01-04T13:25:16.253Z,3.30
2019-01-04T13:28:21.486Z,3.20
2019-01-04T13:31:26.607Z,3.20
2019-01-04T13:34:31.581Z,3.10
2019-01-04T13:37:36.640Z,3.10
2019-01-04T13:40:41.692Z,3.10
2019-01-04T13:43:46.795Z,3.10
2019-01-04T13:46:51.928Z,3.20
2019-01-04T13:49:56.892Z,3.20
2019-01-04T13:53:01.919Z,3.20
2019-01-04T13:56:07.075Z,3.20
2019-01-04T13:59:12.098Z,3.20
2019-01-04T14:02:17.930Z,3.10
2019-01-04T14:05:23.068Z,3.10
2019-01-04T14:08:28.034Z,3.10
2019-01-04T14:11:33.170Z,3.10
2019-01-04T14:14:38.127Z,3.00
2019-01-04T14:17:43.107Z,3.00
2019-01-04T14:20:48.242Z,3.00
2019-01-04T14:23:53.295Z,3.00
2019-01-04T14:26:58.347Z,3.10
2019-01-04T14:30:03.383Z,3.00
2019-01-04T14:33:08.431Z,3.00
2019-01-04T14:36:13.484Z,3.00
2019-01-04T14:39:18.527Z,3.00
2019-01-04T14:42:23.562Z,3.00
2019-01-04T14:45:28.592Z,3.00
2019-01-04T14:48:33.651Z,3.00
2019-01-04T14:51:40.592Z,3.00
2019-01-04T14:54:45.558Z,3.00
2019-01-04T14:57:50.682Z,2.90
2019-01-04T15:00:55.732Z,2.90
2019-01-04T15:04:00.707Z,2.90
2019-01-04T15:07:05.920Z,2.90
2019-01-04T15:10:11.050Z,2.90
2019-01-04T15:13:16.107Z,2.80
2019-01-04T15:16:21.229Z,2.80
2019-01-04T15:19:26.351Z,2.90
2019-01-04T15:22:31.447Z,2.90
2019-01-04T15:25:36.491Z,2.90
2019-01-04T15:28:41.473Z,2.90
2019-01-04T15:31:46.510Z,2.90
2019-01-04T15:34:51.623Z,2.90
2019-01-04T15:37:56.598Z,2.90
2019-01-04T15:41:01.552Z,2.80
2019-01-04T15:44:06.776Z,2.80
2019-01-04T15:47:11.799Z,2.80
2019-01-04T15:50:16.914Z,2.90
2019-01-04T15:53:21.942Z,2.80
2019-01-04T15:56:26.990Z,2.90
2019-01-04T15:59:32.000Z,2.80
2019-01-04T16:02:36.935Z,2.80
2019-01-04T16:05:41.975Z,2.90
2019-01-04T16:08:47.090Z,2.90
2019-01-04T16:11:52.135Z,2.90
2019-01-04T16:14:57.103Z,2.90
2019-01-04T16:18:02.151Z,2.90
2019-01-04T16:21:07.188Z,2.90
2019-01-04T16:24:12.162Z,2.90
2019-01-04T16:27:17.268Z,2.90
2019-01-04T16:30:22.336Z,3.00
2019-01-04T16:33:27.440Z,3.00
2019-01-04T16:36:32.492Z,3.00
2019-01-04T16:39:37.748Z,3.00
2019-01-04T16:42:42.718Z,3.00
2019-01-04T16:45:47.936Z,3.00
2019-01-04T16:48:53.043Z,3.00
2019-01-04T16:51:58.069Z,3.00
2019-01-04T16:55:03.531Z,3.00
2019-01-04T16:58:08.567Z,3.10
2019-01-04T17:01:13.998Z,3.10
2019-01-04T17:04:19.052Z,3.10
2019-01-04T17:07:24.187Z,3.10
2019-01-04T17:10:29.220Z,3.10
2019-01-04T17:13:34.368Z,3.10
2019-01-04T17:16:39.771Z,3.10
2019-01-04T17:19:44.740Z,3.10
2019-01-04T17:22:49.844Z,3.10
2019-01-04T17:25:54.879Z,3.10
2019-01-04T17:28:59.842Z,3.10
2019-01-04T17:32:04.983Z,3.00
2019-01-04T17:35:10.120Z,3.00
2019-01-04T17:38:15.174Z,3.00
2019-01-04T17:41:20.223Z,3.00
2019-01-04T17:44:25.263Z,3.00
2019-01-04T17:47:30.248Z,3.00
2019-01-04T17:50:35.269Z,3.00
2019-01-04T17:53:40.391Z,3.00
2019-01-04T17:56:45.536Z,3.00
2019-01-04T17:59:50.601Z,3.00
2019-01-04T18:03:00.777Z,3.00
2019-01-04T18:06:02.460Z,3.00
2019-01-04T18:09:08.302Z,3.00
2019-01-04T18:12:13.335Z,3.00
2019-01-04T18:15:18.392Z,3.00
2019-01-04T18:18:23.396Z,3.00
2019-01-04T18:21:28.504Z,3.00
2019-01-04T18:24:33.623Z,3.00
2019-01-04T18:27:38.651Z,3.00
2019-01-04T18:30:43.684Z,3.00
2019-01-04T18:33:48.662Z,3.00
2019-01-04T18:36:53.655Z,3.00
2019-01-04T18:39:58.694Z,3.00
2019-01-04T18:43:03.738Z,3.00
2019-01-04T18:46:08.868Z,3.10
2019-01-04T18:49:13.822Z,3.10
2019-01-04T18:52:18.944Z,3.10
2019-01-04T18:55:24.063Z,3.10
2019-01-04T18:58:29.024Z,3.10
2019-01-04T19:01:33.992Z,3.10
2019-01-04T19:04:39.490Z,3.10
2019-01-04T19:07:44.515Z,3.20
2019-01-04T19:10:49.640Z,3.20
2019-01-04T19:13:54.596Z,3.20
2019-01-04T19:16:59.568Z,3.20
2019-01-04T19:20:05.187Z,3.20
2019-01-04T19:23:10.246Z,3.20
2019-01-04T19:26:15.292Z,3.10
2019-01-04T19:29:20.251Z,3.10
2019-01-04T19:32:25.305Z,3.10
2019-01-04T19:35:30.421Z,3.00
2019-01-04T19:38:35.640Z,3.00
2019-01-04T19:41:40.688Z,3.00
2019-01-04T19:44:45.662Z,2.90
2019-01-04T19:47:50.702Z,2.90
2019-01-04T19:50:55.799Z,2.90
2019-01-04T19:54:00.906Z,2.90
2019-01-04T19:57:06.023Z,2.90
2019-01-04T20:00:11.136Z,2.90
2019-01-04T20:03:16.108Z,2.90
2019-01-04T20:07:12.832Z,2.90
2019-01-04T20:11:18.099Z,3.00
2019-01-04T20:15:20.849Z,3.00
2019-01-04T20:18:45.096Z,3.00
2019-01-04T20:22:07.896Z,2.90
2019-01-04T20:25:31.983Z,2.90
2019-01-04T20:28:51.160Z,2.90
2019-01-04T20:32:13.743Z,3.00
2019-01-04T20:35:38.119Z,3.00
2019-01-04T20:39:00.659Z,3.00
2019-01-04T20:42:36.991Z,3.10
2019-01-04T20:46:07.008Z,3.10
2019-01-04T20:49:37.215Z,3.10
2019-01-04T20:52:57.879Z,3.10
2019-01-04T20:56:20.922Z,3.20
2019-01-04T20:59:39.716Z,3.20
2019-01-04T21:03:19.019Z,3.20
2019-01-04T21:06:52.131Z,3.30
2019-01-04T21:10:14.995Z,3.30
2019-01-04T21:13:44.915Z,3.30
2019-01-04T21:17:08.027Z,3.40
2019-01-04T21:20:41.105Z,3.40
2019-01-04T21:24:05.217Z,3.40
2019-01-04T21:27:39.547Z,3.40
2019-01-04T21:31:10.265Z,3.40
2019-01-04T21:34:40.321Z,3.40
2019-01-04T21:38:02.996Z,3.40
2019-01-04T21:41:36.007Z,3.40
2019-01-04T21:45:11.954Z,3.40
2019-01-04T21:48:47.872Z,3.40
2019-01-04T21:52:10.539Z,3.40
2019-01-04T21:55:33.603Z,3.50
2019-01-04T21:59:11.794Z,3.50
2019-01-04T22:02:44.995Z,3.50
2019-01-04T22:06:11.885Z,3.40
2019-01-04T22:09:34.476Z,3.40
2019-01-04T22:13:01.456Z,3.40
2019-01-04T22:16:24.248Z,3.40
2019-01-04T22:19:44.303Z,3.40
2019-01-04T22:23:19.263Z,3.40
2019-01-04T22:26:41.723Z,3.40
2019-01-04T22:30:04.403Z,3.40
2019-01-04T22:33:33.506Z,3.40
2019-01-04T22:36:55.295Z,3.40
2019-01-04T22:40:25.457Z,3.40
2019-01-04T22:43:50.800Z,3.40
2019-01-04T22:47:19.784Z,3.40
2019-01-04T22:50:42.576Z,3.40
2019-01-04T22:54:09.763Z,3.40
2019-01-04T22:57:29.964Z,3.40
2019-01-04T23:01:07.337Z,3.40
2019-01-04T23:04:36.503Z,3.40
2019-01-04T23:08:01.855Z,3.40
2019-01-04T23:11:24.595Z,3.40
2019-01-04T23:15:00.525Z,3.40
2019-01-04T23:18:24.651Z,3.40
2019-01-04T23:22:11.085Z,3.30
2019-01-04T23:25:37.987Z,3.30
2019-01-04T23:29:00.734Z,3.30
2019-01-04T23:32:36.727Z,3.30
2019-01-04T23:35:57.511Z,3.30
2019-01-04T23:39:31.090Z,3.30
2019-01-04T23:42:53.645Z,3.30
2019-01-04T23:46:26.340Z,3.30
2019-01-04T23:49:56.171Z,3.30
2019-01-04T23:53:20.369Z,3.30
2019-01-04T23:56:42.914Z,3.30
